Time;durP1;ratioP1;P1;durP2;ratioP2;P2;SDS_P1;SDS_P2;PMS_P1;PMS_P2;Temp;Humidity;BMP_temperature;BMP_pressure;BME280_temperature;BME280_humidity;BME280_pressure;Samples;Min_cycle;Max_cycle;Signal;HPM_P1;HPM_P2
2021/10/06 00:02:05;;;;;;;10.32;7.53;;;18.90;60.00;;;;;;5067206;28;20024;-67
2021/10/06 00:04:30;;;;;;;12.55;8.70;;;18.90;59.90;;;;;;5071625;28;20036;-67
2021/10/06 00:06:56;;;;;;;16.08;8.93;;;18.90;60.00;;;;;;5065863;28;20688;-67
2021/10/06 00:09:22;;;;;;;11.77;8.55;;;18.90;60.10;;;;;;5051982;28;20026;-67
2021/10/06 00:11:48;;;;;;;12.40;8.73;;;18.90;60.20;;;;;;5051779;28;20029;-67
2021/10/06 00:14:13;;;;;;;11.40;8.30;;;18.90;60.30;;;;;;5052070;28;20036;-67
2021/10/06 00:16:40;;;;;;;10.43;7.50;;;18.90;60.30;;;;;;5054952;28;20033;-67
2021/10/06 00:19:07;;;;;;;11.75;7.95;;;18.80;60.30;;;;;;5055674;28;20039;-67
2021/10/06 00:21:33;;;;;;;14.75;8.52;;;18.80;60.50;;;;;;5055447;28;20486;-67
2021/10/06 00:23:59;;;;;;;11.35;7.25;;;18.80;60.60;;;;;;5055573;28;20032;-67
2021/10/06 00:26:24;;;;;;;11.43;8.23;;;18.80;60.50;;;;;;5055621;28;20017;-68
2021/10/06 00:28:50;;;;;;;11.63;7.82;;;18.80;60.80;;;;;;5055584;28;20056;-67
2021/10/06 00:31:16;;;;;;;10.43;7.70;;;18.80;60.70;;;;;;5059040;28;20402;-67
2021/10/06 00:33:42;;;;;;;9.90;8.00;;;18.80;61.00;;;;;;5055408;28;20033;-67
2021/10/06 00:36:09;;;;;;;11.50;8.32;;;18.80;61.00;;;;;;5055306;28;20033;-69
2021/10/06 00:38:35;;;;;;;10.80;7.57;;;18.80;61.10;;;;;;5055349;28;20028;-67
2021/10/06 00:41:02;;;;;;;11.05;7.70;;;18.80;61.10;;;;;;5056084;28;20474;-67
2021/10/06 00:43:28;;;;;;;11.27;8.30;;;18.80;61.10;;;;;;5055204;28;20399;-67
2021/10/06 00:45:53;;;;;;;10.80;7.70;;;18.80;61.10;;;;;;5055320;28;20024;-68
2021/10/06 00:48:19;;;;;;;11.68;7.70;;;18.70;61.10;;;;;;5055027;28;20489;-68
2021/10/06 00:50:46;;;;;;;15.20;7.05;;;18.70;61.30;;;;;;5055012;28;20029;-67
2021/10/06 00:53:12;;;;;;;9.98;7.18;;;18.70;61.20;;;;;;5054943;28;20024;-67
2021/10/06 00:55:38;;;;;;;11.05;8.20;;;18.70;61.30;;;;;;5054893;28;20025;-67
2021/10/06 00:58:04;;;;;;;12.07;8.18;;;18.70;61.40;;;;;;5055043;28;20025;-67
2021/10/06 01:00:30;;;;;;;10.18;6.97;;;18.70;61.50;;;;;;5057419;28;21802;-67
2021/10/06 01:02:56;;;;;;;9.32;6.93;;;18.70;61.60;;;;;;5074290;28;20037;-67
2021/10/06 01:05:22;;;;;;;8.82;6.78;;;18.70;61.60;;;;;;5072678;28;20056;-68
2021/10/06 01:07:47;;;;;;;11.05;7.22;;;18.70;61.60;;;;;;5071551;28;20031;-67
2021/10/06 01:10:13;;;;;;;9.02;6.85;;;18.70;61.60;;;;;;5074324;28;20024;-67
2021/10/06 01:12:40;;;;;;;10.27;7.20;;;18.70;61.60;;;;;;5056605;28;20494;-67
2021/10/06 01:15:10;;;;;;;10.15;7.28;;;18.70;61.60;;;;;;5054469;28;20524;-68
2021/10/06 01:17:36;;;;;;;11.68;8.75;;;18.70;61.60;;;;;;5054394;28;20425;-67
2021/10/06 01:20:03;;;;;;;12.57;8.18;;;18.70;61.60;;;;;;5054476;28;20025;-67
2021/10/06 01:22:29;;;;;;;11.63;8.25;;;18.70;61.60;;;;;;5061072;28;20055;-67
2021/10/06 01:24:56;;;;;;;10.25;7.93;;;18.70;61.70;;;;;;5066960;28;20053;-67
2021/10/06 01:27:21;;;;;;;10.90;8.48;;;18.70;61.80;;;;;;5054005;28;20550;-67
2021/10/06 01:29:47;;;;;;;11.00;8.63;;;18.70;62.00;;;;;;5052810;28;20128;-67
2021/10/06 01:32:17;;;;;;;14.20;8.63;;;18.70;62.10;;;;;;5054359;28;20029;-67
2021/10/06 01:34:58;;;;;;;11.25;7.95;;;18.70;62.20;;;;;;5054071;28;20378;-67
2021/10/06 01:37:25;;;;;;;14.40;9.60;;;18.70;62.20;;;;;;5054200;28;20108;-67
2021/10/06 01:39:51;;;;;;;11.48;8.93;;;18.70;62.20;;;;;;5054047;28;20025;-68
2021/10/06 01:42:17;;;;;;;12.60;8.40;;;18.60;62.10;;;;;;5072293;28;20401;-67
2021/10/06 01:44:43;;;;;;;11.23;9.15;;;18.70;62.10;;;;;;5074175;28;20031;-67
2021/10/06 01:47:09;;;;;;;11.55;8.77;;;18.60;62.30;;;;;;5072250;28;20472;-67
2021/10/06 01:49:34;;;;;;;11.15;8.02;;;18.60;62.30;;;;;;5074224;28;20094;-67
2021/10/06 01:52:01;;;;;;;11.48;7.85;;;18.60;62.20;;;;;;5066529;28;20028;-67
2021/10/06 01:54:27;;;;;;;10.48;7.20;;;18.60;62.20;;;;;;5054004;28;20067;-67
2021/10/06 01:56:52;;;;;;;11.50;8.57;;;18.60;62.20;;;;;;5053755;28;20029;-67
2021/10/06 01:59:19;;;;;;;11.75;8.35;;;18.60;62.30;;;;;;5053683;28;20490;-67
2021/10/06 02:01:45;;;;;;;9.43;8.05;;;18.60;62.30;;;;;;5053460;28;20037;-68
2021/10/06 02:04:10;;;;;;;9.68;7.55;;;18.60;62.30;;;;;;5053639;28;20048;-67
2021/10/06 02:06:36;;;;;;;10.30;8.07;;;18.60;62.40;;;;;;5052177;28;20025;-67
2021/10/06 02:09:02;;;;;;;11.38;8.00;;;18.60;62.50;;;;;;5054100;28;20107;-68
2021/10/06 02:11:28;;;;;;;10.43;8.13;;;18.60;62.50;;;;;;5053414;28;20457;-66
2021/10/06 02:13:53;;;;;;;13.02;9.35;;;18.60;62.60;;;;;;5053530;28;20025;-66
2021/10/06 02:16:19;;;;;;;9.57;7.65;;;18.50;62.70;;;;;;5053279;28;20065;-66
2021/10/06 02:18:46;;;;;;;10.63;7.95;;;18.50;62.60;;;;;;5053370;28;20033;-67
2021/10/06 02:21:11;;;;;;;15.05;8.77;;;18.50;62.60;;;;;;5053233;28;20116;-66
2021/10/06 02:23:37;;;;;;;10.73;7.75;;;18.50;62.70;;;;;;5052985;28;20100;-66
2021/10/06 02:26:03;;;;;;;11.20;7.78;;;18.50;62.80;;;;;;5053267;28;20071;-66
2021/10/06 02:28:29;;;;;;;12.73;8.25;;;18.50;63.00;;;;;;5053293;28;20497;-67
2021/10/06 02:30:55;;;;;;;11.32;8.63;;;18.50;63.20;;;;;;5052869;28;20087;-66
2021/10/06 02:33:21;;;;;;;11.20;7.90;;;18.40;63.20;;;;;;5053074;28;20087;-66
2021/10/06 02:35:47;;;;;;;10.43;7.50;;;18.50;63.30;;;;;;5053002;28;20037;-66
2021/10/06 02:38:13;;;;;;;10.60;7.03;;;18.40;63.40;;;;;;5052322;28;20078;-66
2021/10/06 02:40:38;;;;;;;10.73;7.80;;;18.40;63.50;;;;;;5056394;28;20028;-66
2021/10/06 02:43:04;;;;;;;11.82;7.43;;;18.40;64.50;;;;;;5072920;28;20037;-66
2021/10/06 02:45:30;;;;;;;11.57;7.57;;;18.40;63.90;;;;;;5069103;28;20031;-66
2021/10/06 02:47:56;;;;;;;9.88;7.30;;;18.40;63.90;;;;;;5052719;28;20106;-66
2021/10/06 02:50:24;;;;;;;11.25;6.93;;;18.30;63.90;;;;;;5052685;28;20032;-66
2021/10/06 02:52:50;;;;;;;8.77;6.00;;;18.30;63.90;;;;;;5052625;28;20067;-66
2021/10/06 02:55:16;;;;;;;7.43;5.57;;;18.30;63.90;;;;;;5063693;28;20120;-67
2021/10/06 02:57:42;;;;;;;8.63;6.40;;;18.30;64.00;;;;;;5072820;28;20024;-66
2021/10/06 03:00:09;;;;;;;7.70;5.72;;;18.30;64.10;;;;;;5070525;28;20128;-67
2021/10/06 03:02:36;;;;;;;6.22;4.82;;;18.30;64.30;;;;;;5072009;28;20048;-67
2021/10/06 03:05:03;;;;;;;7.85;4.65;;;18.20;64.30;;;;;;5069794;28;20052;-67
2021/10/06 03:07:29;;;;;;;6.03;4.05;;;18.20;64.20;;;;;;5071753;28;20056;-68
2021/10/06 03:09:55;;;;;;;6.57;3.70;;;18.20;64.10;;;;;;5069625;28;20403;-67
2021/10/06 03:12:20;;;;;;;6.80;3.83;;;18.20;64.00;;;;;;5071223;28;20036;-68
2021/10/06 03:14:46;;;;;;;4.65;3.22;;;18.10;63.80;;;;;;5071230;28;20024;-67
2021/10/06 03:17:12;;;;;;;5.38;3.35;;;18.10;63.50;;;;;;5071615;28;20406;-67
2021/10/06 03:19:38;;;;;;;8.40;3.03;;;18.10;63.70;;;;;;5071520;28;20028;-68
2021/10/06 03:22:03;;;;;;;4.25;2.97;;;18.10;63.80;;;;;;5067766;28;20021;-68
2021/10/06 03:24:29;;;;;;;4.03;2.58;;;18.00;64.00;;;;;;5051306;28;20028;-67
2021/10/06 03:26:55;;;;;;;6.25;3.13;;;18.00;64.00;;;;;;5049642;28;20032;-66
2021/10/06 03:29:21;;;;;;;4.20;2.80;;;18.00;64.10;;;;;;5051317;28;20415;-67
2021/10/06 03:31:46;;;;;;;4.30;2.90;;;18.00;64.30;;;;;;5051142;28;20029;-67
2021/10/06 03:34:12;;;;;;;4.03;2.40;;;18.00;64.50;;;;;;5051131;28;20108;-66
2021/10/06 03:36:38;;;;;;;4.25;1.70;;;18.00;64.50;;;;;;5049054;28;20041;-67
2021/10/06 03:39:04;;;;;;;2.00;1.65;;;17.90;64.50;;;;;;5049877;28;20540;-67
2021/10/06 03:41:29;;;;;;;2.33;1.48;;;17.90;64.30;;;;;;5049491;28;20078;-66
2021/10/06 03:43:55;;;;;;;2.20;1.50;;;17.90;64.30;;;;;;5050293;28;20025;-66
2021/10/06 03:46:21;;;;;;;2.53;1.67;;;17.90;64.00;;;;;;5049943;28;20363;-66
2021/10/06 03:48:47;;;;;;;2.10;1.27;;;17.90;64.00;;;;;;5050226;28;20032;-66
2021/10/06 03:51:13;;;;;;;3.90;1.73;;;17.80;63.90;;;;;;5048834;28;20555;-66
2021/10/06 03:53:39;;;;;;;3.05;1.80;;;17.80;64.10;;;;;;5049863;28;20106;-67
2021/10/06 03:56:05;;;;;;;3.00;1.80;;;17.80;65.00;;;;;;5049968;28;20051;-66
2021/10/06 03:58:31;;;;;;;2.38;1.60;;;17.80;64.40;;;;;;5049866;28;20490;-67
2021/10/06 04:00:57;;;;;;;2.90;1.65;;;17.80;64.30;;;;;;5049807;28;20033;-67
2021/10/06 04:03:23;;;;;;;1.63;1.30;;;17.80;64.50;;;;;;5008706;28;1195687;-67
2021/10/06 04:05:49;;;;;;;1.30;1.00;;;17.80;64.70;;;;;;5050387;28;20450;-68
2021/10/06 04:08:17;;;;;;;2.38;1.10;;;17.80;64.60;;;;;;5051111;28;20052;-67
2021/10/06 04:10:43;;;;;;;4.63;1.38;;;17.80;64.60;;;;;;5060968;28;20028;-67
2021/10/06 04:13:09;;;;;;;3.08;1.20;;;17.80;64.40;;;;;;5050643;28;20033;-67
2021/10/06 04:15:35;;;;;;;1.70;0.98;;;17.80;64.30;;;;;;5050706;28;20036;-66
2021/10/06 04:18:04;;;;;;;1.52;0.98;;;17.80;64.20;;;;;;5050559;28;20032;-67
2021/10/06 04:20:30;;;;;;;1.90;0.73;;;17.80;64.20;;;;;;5050478;28;20025;-67
2021/10/06 04:22:56;;;;;;;1.20;1.10;;;17.80;64.10;;;;;;5061277;28;20390;-67
2021/10/06 04:25:21;;;;;;;2.08;0.80;;;17.70;64.00;;;;;;5070079;28;20474;-67
2021/10/06 04:27:47;;;;;;;0.65;0.60;;;17.70;64.60;;;;;;5056536;28;20021;-68
2021/10/06 04:30:13;;;;;;;3.08;0.90;;;17.60;64.80;;;;;;5050320;28;20493;-67
2021/10/06 04:32:39;;;;;;;1.05;0.68;;;17.60;65.00;;;;;;5066812;28;20025;-67
2021/10/06 04:35:06;;;;;;;0.85;0.73;;;17.60;65.10;;;;;;5060734;28;20017;-67
2021/10/06 04:37:32;;;;;;;0.98;0.90;;;17.50;65.10;;;;;;5050080;28;20075;-67
2021/10/06 04:39:58;;;;;;;1.52;0.70;;;17.40;65.00;;;;;;5050450;28;20029;-67
2021/10/06 04:42:23;;;;;;;0.70;0.47;;;17.40;65.20;;;;;;5056816;28;20547;-67
2021/10/06 04:44:49;;;;;;;1.17;0.60;;;17.30;65.50;;;;;;5050279;28;20087;-67
2021/10/06 04:47:15;;;;;;;3.78;0.65;;;17.30;65.60;;;;;;5050351;28;20025;-67
2021/10/06 04:49:41;;;;;;;0.85;0.50;;;17.30;65.60;;;;;;5050429;28;20120;-68
2021/10/06 04:52:07;;;;;;;0.40;0.40;;;17.20;65.60;;;;;;5050479;28;20100;-67
2021/10/06 04:54:33;;;;;;;0.65;0.60;;;17.20;65.70;;;;;;5058638;28;20037;-67
2021/10/06 04:56:58;;;;;;;2.83;0.68;;;17.20;65.80;;;;;;5066683;28;20036;-68
2021/10/06 04:59:24;;;;;;;1.08;0.60;;;17.10;65.70;;;;;;5057659;28;20068;-68
2021/10/06 05:01:50;;;;;;;1.58;0.65;;;17.10;66.00;;;;;;5051852;28;20036;-68
2021/10/06 05:04:16;;;;;;;4.22;0.93;;;17.10;66.00;;;;;;5052372;28;20041;-68
2021/10/06 05:06:41;;;;;;;1.52;0.70;;;17.00;66.00;;;;;;5055302;28;20037;-68
2021/10/06 05:09:07;;;;;;;2.25;0.90;;;17.00;66.10;;;;;;5053575;28;20432;-68
2021/10/06 05:11:33;;;;;;;0.80;0.63;;;17.00;66.30;;;;;;5053443;28;20390;-67
2021/10/06 05:13:59;;;;;;;2.03;0.80;;;16.90;66.30;;;;;;5053568;28;20061;-68
2021/10/06 05:16:25;;;;;;;0.90;0.80;;;16.90;66.60;;;;;;5053671;28;20032;-68
2021/10/06 05:18:51;;;;;;;1.10;0.77;;;16.90;66.50;;;;;;5053516;28;20526;-68
2021/10/06 05:21:17;;;;;;;2.85;0.73;;;16.90;66.60;;;;;;5053264;28;20071;-68
2021/10/06 05:23:43;;;;;;;2.13;1.05;;;16.90;66.70;;;;;;5053529;28;20490;-68
2021/10/06 05:26:08;;;;;;;3.28;1.30;;;16.90;66.80;;;;;;5068984;28;20116;-68
2021/10/06 05:28:34;;;;;;;1.20;0.75;;;16.90;66.70;;;;;;5061155;28;20517;-68
2021/10/06 05:31:00;;;;;;;1.33;0.80;;;16.90;66.70;;;;;;5052537;28;20536;-68
2021/10/06 05:33:26;;;;;;;1.75;0.82;;;16.90;66.70;;;;;;5053110;28;20495;-67
2021/10/06 05:35:52;;;;;;;1.92;0.88;;;16.90;67.00;;;;;;5072731;28;20044;-68
2021/10/06 05:38:18;;;;;;;0.60;0.60;;;16.90;67.00;;;;;;5073083;28;20025;-68
2021/10/06 05:40:44;;;;;;;2.20;1.05;;;16.90;66.90;;;;;;5062948;28;20040;-68
2021/10/06 05:43:11;;;;;;;1.13;0.60;;;17.00;66.90;;;;;;5071488;28;20370;-68
2021/10/06 05:45:37;;;;;;;1.33;0.70;;;16.90;66.80;;;;;;5057790;28;20017;-68
2021/10/06 05:48:03;;;;;;;1.23;0.90;;;16.90;66.60;;;;;;5052970;28;20225;-67
2021/10/06 05:50:28;;;;;;;6.80;3.03;;;16.90;66.60;;;;;;5057221;28;20056;-67
2021/10/06 05:52:58;;;;;;;2.70;1.10;;;16.90;66.70;;;;;;5068273;28;20035;-67
2021/10/06 05:55:24;;;;;;;2.75;0.93;;;16.90;66.90;;;;;;5052663;28;20032;-67
2021/10/06 05:57:50;;;;;;;2.67;1.17;;;17.00;66.80;;;;;;5051488;28;20088;-68
2021/10/06 06:00:16;;;;;;;3.97;0.88;;;16.90;66.50;;;;;;5051679;28;20086;-67
2021/10/06 06:02:46;;;;;;;3.53;0.98;;;17.00;66.60;;;;;;5052555;28;20509;-67
2021/10/06 06:05:16;;;;;;;4.82;1.08;;;16.90;66.50;;;;;;5052708;28;20024;-67
2021/10/06 06:07:43;;;;;;;2.03;0.93;;;16.90;66.70;;;;;;5052406;28;20017;-67
2021/10/06 06:10:10;;;;;;;5.75;0.90;;;16.90;66.60;;;;;;5060626;28;20039;-67
2021/10/06 06:12:36;;;;;;;2.47;1.00;;;17.00;66.80;;;;;;5051414;28;20508;-66
2021/10/06 06:15:02;;;;;;;1.40;0.85;;;17.00;66.90;;;;;;5050800;28;20036;-66
2021/10/06 06:17:28;;;;;;;2.20;1.27;;;17.00;67.20;;;;;;5052573;28;20539;-66
2021/10/06 06:19:54;;;;;;;1.95;0.85;;;17.10;67.20;;;;;;5055986;28;20398;-67
2021/10/06 06:22:20;;;;;;;2.33;0.90;;;17.10;67.30;;;;;;5071864;28;20028;-67
2021/10/06 06:24:46;;;;;;;2.15;0.90;;;17.10;66.90;;;;;;5065248;28;20025;-67
2021/10/06 06:27:11;;;;;;;2.20;0.90;;;17.20;66.90;;;;;;5055039;28;20048;-66
2021/10/06 06:29:37;;;;;;;1.75;0.88;;;17.20;66.90;;;;;;5070792;28;20052;-67
2021/10/06 06:32:04;;;;;;;4.15;1.10;;;17.20;66.90;;;;;;5055181;28;20029;-66
2021/10/06 06:34:30;;;;;;;2.95;1.17;;;17.20;66.90;;;;;;5071540;28;20047;-67
2021/10/06 06:36:56;;;;;;;5.65;1.08;;;17.30;66.30;;;;;;5063666;28;20029;-66
2021/10/06 06:39:22;;;;;;;4.88;1.83;;;17.30;66.20;;;;;;5052129;28;20490;-67
2021/10/06 06:41:47;;;;;;;7.40;1.52;;;17.30;65.80;;;;;;5059710;28;20028;-67
2021/10/06 06:44:13;;;;;;;5.63;1.42;;;17.30;66.00;;;;;;5068764;28;20029;-65
2021/10/06 06:46:40;;;;;;;3.47;1.35;;;17.30;66.00;;;;;;5051469;28;20132;-65
2021/10/06 06:49:06;;;;;;;6.55;1.55;;;17.30;65.80;;;;;;5051849;28;20032;-65
2021/10/06 06:51:32;;;;;;;5.15;1.10;;;17.30;65.40;;;;;;5064654;28;20045;-66
2021/10/06 06:53:58;;;;;;;2.03;1.10;;;17.30;65.10;;;;;;5069955;28;20028;-66
2021/10/06 06:56:24;;;;;;;3.50;1.20;;;17.30;65.40;;;;;;5070745;28;20112;-66
2021/10/06 06:58:49;;;;;;;3.38;1.10;;;17.30;65.70;;;;;;5071219;28;20036;-66
2021/10/06 07:01:17;;;;;;;2.42;1.00;;;17.30;65.90;;;;;;5070376;28;20070;-66
2021/10/06 07:03:43;;;;;;;3.40;1.08;;;17.30;65.40;;;;;;5053362;28;20417;-66
2021/10/06 07:06:08;;;;;;;3.75;1.25;;;17.30;65.30;;;;;;5068516;28;20422;-66
2021/10/06 07:08:34;;;;;;;2.92;1.10;;;17.20;65.30;;;;;;5067730;28;20052;-66
2021/10/06 07:11:00;;;;;;;1.17;0.82;;;17.20;66.00;;;;;;5070570;28;20036;-66
2021/10/06 07:13:26;;;;;;;5.35;1.27;;;17.20;66.30;;;;;;5052694;28;20115;-67
2021/10/06 07:15:52;;;;;;;2.15;0.80;;;17.10;66.40;;;;;;5050990;28;20029;-66
2021/10/06 07:18:17;;;;;;;3.05;1.20;;;17.10;66.60;;;;;;5051484;28;20057;-66
2021/10/06 07:20:43;;;;;;;5.00;2.00;;;17.00;66.70;;;;;;5050982;28;20028;-66
2021/10/06 07:23:09;;;;;;;2.20;0.95;;;17.00;66.40;;;;;;5051768;28;20104;-66
2021/10/06 07:25:34;;;;;;;7.80;1.60;;;17.00;66.50;;;;;;5050305;28;20104;-66
2021/10/06 07:28:00;;;;;;;2.65;0.93;;;16.90;66.50;;;;;;5053802;28;20021;-66
2021/10/06 07:30:26;;;;;;;5.80;1.30;;;16.90;66.90;;;;;;5052672;28;20381;-66
2021/10/06 07:32:52;;;;;;;3.92;1.40;;;16.90;66.80;;;;;;5051957;28;20522;-65
2021/10/06 07:35:18;;;;;;;2.10;1.02;;;16.90;66.80;;;;;;5056788;28;20387;-66
2021/10/06 07:37:43;;;;;;;2.65;1.30;;;16.90;66.80;;;;;;5069493;28;20111;-66
2021/10/06 07:40:10;;;;;;;1.75;0.95;;;16.90;67.70;;;;;;5067495;28;20029;-66
2021/10/06 07:42:35;;;;;;;5.03;1.20;;;16.90;66.70;;;;;;5071189;28;20025;-66
2021/10/06 07:45:01;;;;;;;1.52;0.90;;;16.90;66.90;;;;;;5071663;28;20074;-66
2021/10/06 07:47:27;;;;;;;4.03;1.20;;;17.00;67.10;;;;;;5051562;28;20055;-66
2021/10/06 07:49:53;;;;;;;4.38;1.45;;;17.00;67.00;;;;;;5050569;28;20029;-65
2021/10/06 07:52:19;;;;;;;8.10;1.38;;;17.00;67.20;;;;;;5051784;28;20048;-66
2021/10/06 07:54:45;;;;;;;4.88;1.27;;;17.00;67.60;;;;;;5051816;28;20029;-66
2021/10/06 07:57:10;;;;;;;4.85;1.42;;;17.00;67.60;;;;;;5055227;28;20075;-66
2021/10/06 07:59:36;;;;;;;3.67;1.20;;;17.00;67.50;;;;;;5053189;28;20493;-66
2021/10/06 08:02:03;;;;;;;2.15;1.30;;;17.00;67.30;;;;;;5051267;28;20024;-66
2021/10/06 08:04:29;;;;;;;5.57;1.90;;;17.00;67.60;;;;;;5050082;28;20094;-66
2021/10/06 08:06:54;;;;;;;4.32;1.42;;;17.00;67.60;;;;;;5051433;28;20025;-66
2021/10/06 08:09:20;;;;;;;1.83;1.10;;;17.10;67.40;;;;;;5053737;28;20096;-65
2021/10/06 08:11:46;;;;;;;4.55;1.60;;;17.10;67.10;;;;;;5071530;28;20037;-66
2021/10/06 08:14:12;;;;;;;4.53;1.63;;;17.00;66.80;;;;;;5071754;28;20031;-66
2021/10/06 08:16:38;;;;;;;2.40;1.27;;;17.00;66.50;;;;;;5067561;28;20033;-66
2021/10/06 08:19:05;;;;;;;1.42;1.08;;;17.10;67.20;;;;;;5071329;28;20044;-66
2021/10/06 08:21:30;;;;;;;2.60;1.52;;;17.10;67.60;;;;;;5069508;28;20025;-66
2021/10/06 08:23:57;;;;;;;2.30;1.40;;;17.10;67.60;;;;;;5071523;28;20032;-65
2021/10/06 08:26:23;;;;;;;3.50;1.42;;;17.10;67.70;;;;;;5051394;28;20029;-64
2021/10/06 08:28:48;;;;;;;2.42;1.10;;;17.10;67.70;;;;;;5058597;28;20025;-65
2021/10/06 08:31:14;;;;;;;4.32;1.73;;;17.10;67.70;;;;;;5066907;28;20033;-65
2021/10/06 08:33:40;;;;;;;5.78;1.55;;;17.10;67.10;;;;;;5070062;28;20035;-64
2021/10/06 08:36:06;;;;;;;1.83;1.17;;;17.10;66.90;;;;;;5055934;28;20064;-65
2021/10/06 08:38:33;;;;;;;2.20;1.05;;;17.10;66.70;;;;;;5062590;28;20060;-65
2021/10/06 08:40:59;;;;;;;2.83;1.23;;;17.10;67.60;;;;;;5063265;28;20039;-65
2021/10/06 08:43:25;;;;;;;3.75;1.35;;;17.00;68.40;;;;;;5073726;28;20369;-66
2021/10/06 08:45:51;;;;;;;1.98;0.98;;;17.00;68.90;;;;;;5058531;28;20100;-65
2021/10/06 08:48:17;;;;;;;2.50;1.05;;;16.90;69.00;;;;;;5072714;28;20024;-65
2021/10/06 08:50:43;;;;;;;6.82;1.17;;;16.90;69.10;;;;;;5062633;28;20033;-65
2021/10/06 08:53:09;;;;;;;2.33;1.13;;;16.90;68.90;;;;;;5053877;28;20394;-65
2021/10/06 08:55:35;;;;;;;3.35;0.93;;;16.80;68.70;;;;;;5054568;28;20028;-65
2021/10/06 08:58:06;;;;;;;3.83;1.15;;;16.80;68.40;;;;;;5054841;28;20526;-65
2021/10/06 09:00:49;;;;;;;1.73;0.77;;;16.70;68.40;;;;;;5062660;28;20478;-65
2021/10/06 09:03:28;;;;;;;0.95;0.57;;;16.60;67.90;;;;;;5074700;28;20041;-65
2021/10/06 09:06:14;;;;;;;1.20;0.60;;;16.50;67.40;;;;;;5070912;28;20625;-65
2021/10/06 09:08:45;;;;;;;2.58;0.77;;;16.40;68.00;;;;;;5054709;28;20032;-65
2021/10/06 09:11:13;;;;;;;1.50;0.70;;;16.40;68.30;;;;;;5054534;28;20037;-66
2021/10/06 09:13:44;;;;;;;3.47;0.60;;;16.30;68.40;;;;;;5054677;28;20063;-65
2021/10/06 09:16:11;;;;;;;4.97;1.00;;;16.30;68.40;;;;;;5055383;28;20025;-66
2021/10/06 09:18:36;;;;;;;2.40;0.57;;;16.20;68.70;;;;;;5054596;28;20356;-66
2021/10/06 09:21:09;;;;;;;1.10;0.68;;;16.10;69.30;;;;;;5058698;28;20123;-66
2021/10/06 09:23:41;;;;;;;2.40;0.80;;;16.00;70.10;;;;;;5072226;28;20560;-67
2021/10/06 09:26:10;;;;;;;1.88;0.70;;;15.90;70.90;;;;;;5056754;28;20156;-66
2021/10/06 09:28:46;;;;;;;1.63;0.50;;;15.90;71.80;;;;;;5063566;28;20036;-66
2021/10/06 09:31:18;;;;;;;2.38;0.73;;;15.80;72.40;;;;;;5054825;28;20033;-67
2021/10/06 09:33:57;;;;;;;2.85;1.00;;;15.80;73.20;;;;;;5055239;28;20112;-67
2021/10/06 09:36:35;;;;;;;3.33;0.90;;;15.70;73.70;;;;;;5052931;28;20032;-66
2021/10/06 09:39:06;;;;;;;2.50;0.80;;;15.70;74.50;;;;;;5053244;28;20040;-67
2021/10/06 09:41:39;;;;;;;1.20;0.70;;;15.80;76.30;;;;;;5058156;28;20041;-67
2021/10/06 09:44:14;;;;;;;2.28;1.05;;;15.90;76.40;;;;;;5063244;28;20021;-65
2021/10/06 09:46:58;;;;;;;2.00;0.65;;;16.00;77.20;;;;;;5072977;28;20056;-66
2021/10/06 09:49:28;;;;;;;1.00;0.70;;;16.10;77.50;;;;;;5072768;28;20058;-66
2021/10/06 09:52:13;;;;;;;2.47;0.80;;;16.30;78.00;;;;;;5071311;28;20628;-66
2021/10/06 09:54:39;;;;;;;2.95;0.82;;;16.40;78.10;;;;;;5061448;28;20029;-67
2021/10/06 09:57:05;;;;;;;2.95;0.80;;;16.50;78.10;;;;;;5055289;28;20510;-65
2021/10/06 09:59:31;;;;;;;2.70;0.80;;;16.60;78.20;;;;;;5064714;28;20111;-67
2021/10/06 10:01:59;;;;;;;1.23;0.73;;;16.70;78.40;;;;;;5059602;28;20031;-66
2021/10/06 10:04:28;;;;;;;1.67;0.80;;;16.90;78.80;;;;;;5067003;28;20050;-66
2021/10/06 10:06:55;;;;;;;3.03;1.00;;;17.00;78.40;;;;;;5053287;28;20021;-67
2021/10/06 10:09:21;;;;;;;2.63;0.80;;;17.00;77.80;;;;;;5052678;28;20017;-67
2021/10/06 10:11:48;;;;;;;2.15;0.70;;;17.20;78.00;;;;;;5052786;28;20074;-67
2021/10/06 10:14:14;;;;;;;1.08;0.70;;;17.30;78.40;;;;;;5052585;28;20505;-67
2021/10/06 10:16:40;;;;;;;1.95;0.80;;;17.50;78.70;;;;;;5059234;28;20040;-67
2021/10/06 10:19:11;;;;;;;3.13;1.08;;;17.60;78.30;;;;;;5070527;28;20085;-67
2021/10/06 10:21:42;;;;;;;0.77;0.60;;;17.80;77.60;;;;;;5057785;28;20021;-67
2021/10/06 10:24:13;;;;;;;2.13;0.50;;;17.90;76.40;;;;;;5066566;28;20096;-67
2021/10/06 10:27:06;;;;;;;4.72;0.80;;;18.00;76.00;;;;;;5062167;28;20058;-66
2021/10/06 10:29:49;;;;;;;1.20;0.70;;;18.10;75.10;;;;;;5054985;28;20040;-67
2021/10/06 10:32:21;;;;;;;2.97;1.42;;;18.10;74.80;;;;;;5051897;28;20120;-67
2021/10/06 10:35:00;;;;;;;1.00;0.82;;;18.20;74.20;;;;;;5060223;28;20195;-67
2021/10/06 10:37:53;;;;;;;4.55;1.13;;;18.20;72.10;;;;;;5071118;28;20472;-66
2021/10/06 10:40:34;;;;;;;1.65;0.95;;;18.20;72.20;;;;;;5051875;28;20033;-67
2021/10/06 10:43:10;;;;;;;2.05;0.77;;;18.20;72.80;;;;;;5052022;28;20389;-66
2021/10/06 10:45:36;;;;;;;0.98;0.75;;;18.30;73.00;;;;;;5051965;28;20017;-67
2021/10/06 10:48:13;;;;;;;2.35;0.77;;;18.30;72.80;;;;;;5051809;28;20020;-66
2021/10/06 10:50:44;;;;;;;1.17;0.65;;;18.40;69.40;;;;;;5051960;28;21370;-66
2021/10/06 10:53:21;;;;;;;2.42;1.05;;;18.40;69.90;;;;;;5068033;28;20031;-66
2021/10/06 10:55:56;;;;;;;1.73;0.88;;;18.40;68.60;;;;;;5064751;28;20063;-67
2021/10/06 10:58:34;;;;;;;1.40;0.80;;;18.40;68.60;;;;;;5068345;28;20073;-68
2021/10/06 11:01:03;;;;;;;2.58;0.70;;;18.50;68.30;;;;;;5058795;28;20025;-66
2021/10/06 11:03:29;;;;;;;2.63;0.70;;;18.60;69.40;;;;;;5052291;28;20048;-67
2021/10/06 11:05:58;;;;;;;1.48;0.98;;;18.60;69.80;;;;;;5053671;28;20029;-67
2021/10/06 11:08:25;;;;;;;2.47;0.63;;;18.70;68.90;;;;;;5063961;28;20100;-67
2021/10/06 11:11:09;;;;;;;2.67;0.90;;;18.80;68.50;;;;;;5064338;28;20017;-67
2021/10/06 11:13:40;;;;;;;2.13;0.90;;;18.80;67.00;;;;;;5052535;28;20025;-67
2021/10/06 11:16:06;;;;;;;2.78;0.98;;;18.90;66.30;;;;;;5062795;28;20028;-68
2021/10/06 11:18:43;;;;;;;2.25;0.80;;;19.00;67.00;;;;;;5072414;28;20082;-67
2021/10/06 11:21:10;;;;;;;2.83;1.00;;;19.00;65.30;;;;;;5072361;28;20113;-67
2021/10/06 11:23:36;;;;;;;2.25;0.90;;;19.00;65.30;;;;;;5054097;28;20017;-67
2021/10/06 11:26:07;;;;;;;1.92;0.68;;;19.10;64.20;;;;;;5058174;28;20017;-67
2021/10/06 11:28:38;;;;;;;3.00;0.90;;;19.00;64.40;;;;;;5054698;28;20021;-67
2021/10/06 11:31:05;;;;;;;1.88;0.73;;;19.00;62.60;;;;;;5052034;28;20498;-67
2021/10/06 11:33:31;;;;;;;2.80;1.30;;;19.00;64.10;;;;;;5051955;28;20083;-66
2021/10/06 11:36:17;;;;;;;2.15;1.08;;;19.10;64.80;;;;;;5051965;28;20062;-67
2021/10/06 11:38:50;;;;;;;3.75;1.17;;;19.10;63.90;;;;;;5051909;28;20036;-67
2021/10/06 11:41:16;;;;;;;6.35;1.05;;;19.20;63.10;;;;;;5051886;28;20040;-67
2021/10/06 11:43:54;;;;;;;2.00;0.90;;;19.20;63.40;;;;;;5050717;28;20437;-67
2021/10/06 11:46:26;;;;;;;2.53;1.08;;;19.30;64.40;;;;;;5051759;28;20028;-66
2021/10/06 11:48:56;;;;;;;2.65;0.85;;;19.50;63.50;;;;;;5051894;28;20043;-66
2021/10/06 11:51:39;;;;;;;2.22;0.90;;;19.60;63.50;;;;;;5050493;28;20047;-67
2021/10/06 11:54:05;;;;;;;2.47;0.90;;;19.70;64.80;;;;;;5051774;28;20031;-66
2021/10/06 11:56:31;;;;;;;5.47;1.02;;;19.90;64.80;;;;;;5051781;28;20383;-66
2021/10/06 11:59:12;;;;;;;2.53;0.90;;;20.00;61.20;;;;;;5051637;28;20033;-67
2021/10/06 12:01:39;;;;;;;2.47;0.75;;;20.00;61.60;;;;;;5052037;28;20363;-68
2021/10/06 12:04:12;;;;;;;1.85;0.80;;;20.00;61.10;;;;;;5051784;28;20041;-67
2021/10/06 12:06:41;;;;;;;1.90;0.80;;;20.10;60.00;;;;;;5051736;28;20029;-68
2021/10/06 12:09:09;;;;;;;2.33;0.75;;;20.10;60.90;;;;;;5054798;28;20103;-67
2021/10/06 12:11:37;;;;;;;1.33;0.65;;;20.10;61.30;;;;;;5060137;28;20029;-66
2021/10/06 12:14:22;;;;;;;1.25;0.70;;;20.10;60.90;;;;;;5062986;28;20028;-66
2021/10/06 12:17:11;;;;;;;1.85;0.80;;;20.10;59.70;;;;;;5070230;28;20425;-67
2021/10/06 12:19:38;;;;;;;2.40;0.88;;;20.10;59.70;;;;;;5055656;28;20482;-68
2021/10/06 12:22:05;;;;;;;2.40;1.00;;;20.10;59.30;;;;;;5055668;28;20029;-67
2021/10/06 12:24:32;;;;;;;2.53;0.80;;;20.10;59.50;;;;;;5062556;28;20085;-66
2021/10/06 12:26:58;;;;;;;1.75;0.77;;;20.10;59.70;;;;;;5072676;28;20016;-67
2021/10/06 12:29:29;;;;;;;0.85;0.68;;;20.00;59.50;;;;;;5064040;28;20103;-67
2021/10/06 12:32:16;;;;;;;1.52;0.70;;;19.90;59.20;;;;;;5066571;28;20025;-67
2021/10/06 12:34:44;;;;;;;2.35;1.27;;;19.80;59.50;;;;;;5075076;28;20490;-66
2021/10/06 12:37:12;;;;;;;3.92;1.20;;;19.80;60.20;;;;;;5072061;28;20078;-67
2021/10/06 12:39:38;;;;;;;3.35;1.08;;;19.60;58.80;;;;;;5054978;28;20386;-66
2021/10/06 12:42:08;;;;;;;6.15;1.70;;;19.50;58.20;;;;;;5055010;28;20029;-67
2021/10/06 12:44:44;;;;;;;3.00;1.10;;;19.30;59.70;;;;;;5053717;28;20060;-67
2021/10/06 12:47:15;;;;;;;3.20;1.45;;;19.00;60.80;;;;;;5057418;28;20074;-67
2021/10/06 12:49:47;;;;;;;1.25;0.70;;;18.80;61.40;;;;;;5055318;28;20018;-67